KBIE

Beatrice Municipal Airport

Beatrice, Nebraska, USA
METAR KBIE 210335Z AUTO 08008KT 10SM CLR 12/M01 A3025 RMK AO2 T01221012
Observed Flight Rules
Apr-21 @ 03:35 UTC (23 minutes ago) Visual Flight Rules
Wind Visibility Clouds
80° at 8 knots 10 miles
  • Clear skies
Temperatures Readings
Current 12°C / 54°F
Dewpoint -1°C / 30°F
Humidity 41%
Altimeter 30.25" Hg
Pressure 1024 hPa
Elevation 403
METAR KBIE 210335Z AUTO 08008KT 10SM CLR 12/M01 A3025 RMK AO2 T01221012
Observed Flight Rules
Apr-21 @ 03:35 UTC
(23 minutes ago)
VFR
Wind Visibility
80° at 8 knots 10 miles
Clouds
  • Clear skies
Temperature Dewpoint
12°C / 54°F -1°C / 30°F
Humidity Altimeter Pressure
41% 30.25" Hg 1024 hPa